Time;durP1;ratioP1;P1;durP2;ratioP2;P2;SDS_P1;SDS_P2;PMS_P1;PMS_P2;Temp;Humidity;BMP_temperature;BMP_pressure;BME280_temperature;BME280_humidity;BME280_pressure;Samples;Min_cycle;Max_cycle;Signal;HPM_P1;HPM_P2
2023/03/15 00:00:16;;;;;;;6.93;4.40;;;6.80;99.90;;;7.27;87.27;101019.00;5074342;28;20054;-70
2023/03/15 00:02:46;;;;;;;11.90;5.07;;;7.10;99.90;;;7.31;86.57;101025.16;5073911;28;20041;-70
2023/03/15 00:05:14;;;;;;;9.18;4.72;;;7.10;99.90;;;7.01;85.30;101022.16;5074182;28;20200;-70
2023/03/15 00:07:42;;;;;;;8.57;4.55;;;7.00;99.90;;;6.68;86.09;101035.75;5073871;28;20062;-69
2023/03/15 00:10:12;;;;;;;9.48;5.10;;;6.60;99.90;;;6.77;85.54;101040.25;5073809;28;20052;-69
2023/03/15 00:12:41;;;;;;;7.90;4.72;;;6.70;99.90;;;6.60;86.48;101034.75;5073688;28;20106;-69
2023/03/15 00:15:13;;;;;;;5.30;4.30;;;6.50;99.90;;;6.53;86.98;101035.53;5073770;28;20107;-69
2023/03/15 00:17:44;;;;;;;5.85;4.40;;;6.40;99.90;;;6.16;87.72;101010.47;5073422;28;20404;-69
2023/03/15 00:20:14;;;;;;;10.48;5.30;;;6.30;99.90;;;6.33;88.05;101039.59;5073529;28;20040;-70
2023/03/15 00:22:43;;;;;;;10.23;4.55;;;6.20;99.90;;;6.62;87.85;101037.41;5071712;28;20403;-69
2023/03/15 00:25:11;;;;;;;5.53;3.67;;;6.40;99.90;;;6.56;87.04;101038.22;5073384;28;20439;-69
2023/03/15 00:27:40;;;;;;;8.73;4.30;;;6.50;99.90;;;6.53;86.79;101042.53;5072020;28;20080;-69
2023/03/15 00:30:10;;;;;;;7.65;4.15;;;6.40;99.90;;;6.49;87.59;101046.84;5071984;28;20468;-70
2023/03/15 00:32:38;;;;;;;7.88;4.20;;;6.40;99.90;;;6.41;87.60;101050.25;5073157;28;20060;-69
2023/03/15 00:35:11;;;;;;;9.82;4.47;;;6.20;99.90;;;6.31;88.17;101050.09;5073134;28;20033;-68
2023/03/15 00:37:40;;;;;;;4.97;4.55;;;6.20;99.90;;;6.23;87.74;101053.47;5073329;28;20410;-68
2023/03/15 00:40:11;;;;;;;6.82;4.75;;;6.10;99.90;;;6.31;88.13;101062.31;5071842;28;20052;-68
2023/03/15 00:42:39;;;;;;;5.43;4.35;;;6.10;99.90;;;6.32;88.28;101059.75;5073013;28;20090;-68
2023/03/15 00:45:09;;;;;;;5.25;4.75;;;6.10;99.90;;;6.21;88.12;101037.66;5073103;28;20132;-69
2023/03/15 00:47:37;;;;;;;6.00;4.30;;;6.20;99.90;;;6.31;88.30;101055.34;5072858;28;20041;-68
2023/03/15 00:50:07;;;;;;;4.90;4.40;;;6.10;99.90;;;6.44;88.34;101055.53;5073033;28;20134;-69
2023/03/15 00:52:37;;;;;;;6.53;4.35;;;6.20;99.90;;;6.47;87.59;101050.31;5072176;28;20134;-68
2023/03/15 00:55:12;;;;;;;5.13;4.53;;;6.20;99.90;;;6.23;87.22;101042.97;5088617;28;20053;-69
2023/03/15 00:57:41;;;;;;;5.28;4.32;;;6.20;99.90;;;6.33;87.71;101069.38;5072881;28;20049;-68
2023/03/15 01:00:14;;;;;;;5.00;4.35;;;6.10;99.90;;;6.15;88.25;101071.72;5087978;28;20384;-68
2023/03/15 01:02:43;;;;;;;5.07;4.55;;;6.00;99.90;;;6.26;87.87;101078.03;5072805;28;20120;-69
2023/03/15 01:05:13;;;;;;;5.03;4.57;;;6.00;99.90;;;6.01;88.16;101075.88;5072663;28;20041;-68
2023/03/15 01:07:44;;;;;;;14.80;4.40;;;5.90;99.90;;;6.13;88.57;101077.81;5072585;28;20083;-68
2023/03/15 01:10:14;;;;;;;8.43;4.32;;;5.90;99.90;;;6.13;88.43;101081.31;5072496;28;20048;-68
2023/03/15 01:12:43;;;;;;;6.78;4.47;;;5.90;99.90;;;6.16;88.02;101091.88;5072245;28;20052;-69
2023/03/15 01:15:14;;;;;;;6.53;5.20;;;5.90;99.90;;;6.24;87.59;101090.25;5072305;28;20044;-69
2023/03/15 01:17:44;;;;;;;5.35;4.72;;;6.00;99.90;;;6.19;87.66;101097.16;5070888;28;20048;-68
2023/03/15 01:20:15;;;;;;;8.00;4.57;;;6.00;99.90;;;6.34;87.34;101096.53;5070731;28;20579;-68
2023/03/15 01:22:43;;;;;;;5.95;4.63;;;6.10;99.90;;;6.22;87.36;101096.34;5087524;28;20184;-68
2023/03/15 01:25:14;;;;;;;6.78;4.70;;;6.00;99.90;;;6.08;88.09;101085.59;5071858;28;20106;-68
2023/03/15 01:27:44;;;;;;;5.28;4.60;;;5.90;99.90;;;6.21;87.59;101091.97;5070732;28;20044;-68
2023/03/15 01:30:13;;;;;;;9.10;5.20;;;6.00;99.90;;;6.20;87.58;101092.78;5072332;28;20492;-68
2023/03/15 01:32:42;;;;;;;5.18;4.68;;;6.00;99.90;;;6.19;87.52;101091.91;5070335;28;20056;-68
2023/03/15 01:35:11;;;;;;;6.68;4.55;;;6.00;99.90;;;6.28;87.45;101102.59;5071012;28;20048;-68
2023/03/15 01:37:40;;;;;;;4.57;4.18;;;6.10;99.90;;;6.27;87.35;101108.69;5072813;28;20052;-69
2023/03/15 01:40:13;;;;;;;8.67;4.57;;;6.10;99.90;;;5.57;87.79;100997.19;5073431;28;20410;-68
2023/03/15 01:42:53;;;;;;;10.30;4.75;;;6.00;99.90;;;6.24;87.98;101120.88;5071566;28;20056;-69
2023/03/15 01:46:23;;;;;;;8.38;5.00;;;6.00;99.90;;;6.25;88.87;101126.16;5071497;28;20049;-69
2023/03/15 01:49:00;;;;;;;7.28;5.07;;;6.00;99.90;;;6.37;88.56;101126.38;5087775;28;20423;-68
2023/03/15 01:51:40;;;;;;;6.03;4.25;;;6.10;99.90;;;6.45;88.28;101138.72;5071428;28;20060;-68
2023/03/15 01:54:17;;;;;;;8.25;5.32;;;6.20;99.90;;;6.39;88.71;101129.91;5071255;28;20482;-69
2023/03/15 01:56:52;;;;;;;7.47;4.95;;;6.20;99.90;;;6.46;88.62;101140.50;5071370;28;20052;-69
2023/03/15 01:59:26;;;;;;;5.25;4.40;;;6.20;99.90;;;6.51;88.11;101138.84;5073047;28;20102;-69
2023/03/15 02:01:56;;;;;;;5.28;4.45;;;6.20;99.90;;;6.58;87.71;101145.97;5071212;28;20053;-68
2023/03/15 02:04:31;;;;;;;6.45;4.55;;;6.30;99.90;;;6.54;87.56;101144.16;5087834;28;20138;-68
2023/03/15 02:07:01;;;;;;;7.85;4.63;;;6.30;99.90;;;6.63;87.37;101144.28;5072380;28;20059;-68
2023/03/15 02:09:42;;;;;;;6.03;4.22;;;6.30;99.90;;;6.75;87.10;101150.63;5072243;28;20089;-69
2023/03/15 02:12:11;;;;;;;9.57;4.68;;;6.40;99.90;;;6.65;86.85;101153.09;5072377;28;20072;-68
2023/03/15 02:14:41;;;;;;;11.38;5.03;;;6.40;99.90;;;6.68;86.67;101155.78;5072224;28;20472;-68
2023/03/15 02:17:13;;;;;;;6.07;5.18;;;6.40;99.90;;;6.96;86.50;101150.97;5070786;28;20055;-69
2023/03/15 02:19:53;;;;;;;6.65;4.25;;;6.70;99.90;;;6.67;86.32;101130.34;5087842;28;20510;-69
2023/03/15 02:22:32;;;;;;;9.20;4.55;;;6.60;99.90;;;7.01;85.73;101165.03;5087767;28;20044;-69
2023/03/15 02:25:12;;;;;;;7.10;4.82;;;6.70;99.90;;;7.19;85.50;101165.31;5087784;28;20052;-68
2023/03/15 02:27:43;;;;;;;9.90;4.87;;;6.90;99.90;;;6.97;84.21;101163.22;5087412;28;20048;-68
2023/03/15 02:30:12;;;;;;;8.05;4.47;;;6.90;99.90;;;7.03;84.18;101170.31;5072342;28;20115;-68
2023/03/15 02:32:42;;;;;;;8.55;4.82;;;6.80;99.90;;;7.08;83.60;101172.16;5070580;28;20106;-68
2023/03/15 02:35:10;;;;;;;9.95;4.75;;;6.80;99.90;;;6.79;82.64;101172.59;5087453;28;20476;-69
2023/03/15 02:37:44;;;;;;;11.43;4.57;;;6.70;99.90;;;6.90;83.01;101171.00;5071938;28;20045;-68
2023/03/15 02:40:18;;;;;;;7.75;4.72;;;6.60;99.90;;;6.79;82.01;101178.75;5071806;28;20438;-68
2023/03/15 02:42:52;;;;;;;6.70;4.40;;;6.60;99.90;;;6.74;80.94;101169.00;5071992;28;20056;-68
2023/03/15 02:45:21;;;;;;;10.40;4.55;;;6.60;99.90;;;7.01;80.44;101185.19;5071883;28;20391;-68
2023/03/15 02:47:51;;;;;;;8.77;4.57;;;6.70;99.90;;;6.91;78.86;101185.94;5071888;28;20037;-69
2023/03/15 02:50:20;;;;;;;9.65;4.75;;;6.70;99.90;;;6.64;79.21;101190.75;5070371;28;20601;-69
2023/03/15 02:52:51;;;;;;;9.52;4.55;;;6.40;99.90;;;6.52;79.45;101199.31;5070244;28;20500;-69
2023/03/15 02:55:20;;;;;;;8.00;5.10;;;6.40;99.90;;;6.61;80.36;101206.44;5071791;28;20055;-68
2023/03/15 02:57:51;;;;;;;5.70;4.55;;;6.40;99.90;;;6.59;79.52;101210.78;5070253;28;20568;-69
2023/03/15 03:00:20;;;;;;;20.52;5.55;;;6.30;99.90;;;6.46;79.23;101235.09;5071769;28;20044;-69
2023/03/15 03:02:49;;;;;;;10.95;5.75;;;6.30;99.90;;;6.58;80.04;101219.56;5070374;28;20106;-69
2023/03/15 03:05:18;;;;;;;11.90;6.32;;;6.30;99.90;;;6.62;79.69;101221.38;5071663;28;20051;-69
2023/03/15 03:07:49;;;;;;;11.50;5.30;;;6.40;99.90;;;6.64;79.72;101227.53;5071439;28;20466;-68
2023/03/15 03:10:19;;;;;;;;;;;6.30;99.90;;;6.62;79.05;101231.88;5087863;28;20048;-69
2023/03/15 03:12:57;;;;;;;10.75;5.22;;;6.40;99.90;;;6.68;78.79;101238.13;5070375;28;19968;-68
2023/03/15 03:15:35;;;;;;;7.50;4.75;;;6.40;99.90;;;6.79;79.40;101244.47;5073552;28;20472;-68
2023/03/15 03:18:03;;;;;;;6.00;4.90;;;6.40;99.90;;;6.85;79.30;101239.28;5075881;28;20453;-69
2023/03/15 03:20:32;;;;;;;7.32;3.92;;;6.50;99.90;;;6.93;78.60;101240.28;5074567;28;20036;-69
2023/03/15 03:23:04;;;;;;;10.88;5.07;;;6.60;99.90;;;6.98;78.77;101253.53;5074775;28;20040;-69
2023/03/15 03:25:35;;;;;;;10.00;4.60;;;6.70;99.90;;;7.12;78.76;101260.75;5091317;28;20092;-69
2023/03/15 03:28:05;;;;;;;7.85;4.68;;;6.80;99.90;;;7.16;78.25;101257.31;5091127;28;20047;-69
2023/03/15 03:30:35;;;;;;;5.18;3.80;;;6.90;99.90;;;7.21;77.72;101267.91;5075780;28;20045;-69
2023/03/15 03:33:04;;;;;;;6.00;4.25;;;7.00;99.90;;;7.08;77.38;101234.41;5075851;28;20119;-70
2023/03/15 03:35:32;;;;;;;7.50;4.28;;;7.10;99.90;;;7.34;76.65;101261.97;5091094;28;20576;-68
2023/03/15 03:38:01;;;;;;;5.47;4.68;;;7.10;99.90;;;7.28;76.74;101268.03;5074030;28;20495;-68
2023/03/15 03:40:35;;;;;;;5.72;4.97;;;7.10;99.90;;;7.23;76.69;101267.09;5090831;28;20055;-69
2023/03/15 03:43:07;;;;;;;5.55;4.10;;;7.10;99.90;;;7.37;76.19;101269.94;5074162;28;20059;-69
2023/03/15 03:45:36;;;;;;;5.55;4.95;;;7.20;99.90;;;7.38;76.53;101271.69;5091116;28;20083;-69
2023/03/15 03:48:06;;;;;;;4.30;3.90;;;7.20;99.90;;;7.46;75.92;101285.84;5074086;28;20044;-70
2023/03/15 03:50:35;;;;;;;4.95;4.43;;;7.20;99.90;;;7.43;75.96;101288.44;5073997;28;20054;-69
2023/03/15 03:53:03;;;;;;;6.75;4.05;;;7.20;99.90;;;7.42;76.04;101285.75;5090643;28;20048;-69
2023/03/15 03:55:34;;;;;;;4.82;3.88;;;7.30;99.90;;;7.46;76.21;101298.09;5073608;28;20045;-69
2023/03/15 03:58:03;;;;;;;4.25;3.85;;;7.20;99.90;;;7.42;75.98;101305.06;5073669;28;20052;-69
2023/03/15 04:00:53;;;;;;;9.68;5.20;;;7.20;99.90;;;7.42;75.60;101291.91;5090527;28;20125;-68
2023/03/15 04:03:26;;;;;;;6.63;4.47;;;7.20;99.90;;;7.19;75.98;101290.69;5073414;28;20041;-68
2023/03/15 04:06:04;;;;;;;4.72;4.32;;;7.00;99.90;;;6.91;77.13;101291.97;5090476;28;20059;-70
2023/03/15 04:08:36;;;;;;;7.13;4.30;;;6.70;99.90;;;6.64;78.20;101288.00;5073473;28;20052;-69
2023/03/15 04:11:05;;;;;;;6.40;4.22;;;6.40;99.90;;;6.64;77.84;101278.34;5073352;28;20098;-69
2023/03/15 04:13:37;;;;;;;4.25;3.95;;;6.40;99.90;;;6.67;77.96;101309.94;5073247;28;20143;-69
2023/03/15 04:16:08;;;;;;;6.55;4.45;;;6.50;99.90;;;6.54;78.25;101310.59;5073114;28;20048;-69
2023/03/15 04:18:55;;;;;;;5.30;4.57;;;6.40;99.90;;;6.30;78.45;101316.25;5073319;28;20049;-69
2023/03/15 04:21:23;;;;;;;5.18;4.68;;;6.20;99.90;;;6.12;79.37;101309.72;5073201;28;20052;-69
2023/03/15 04:23:56;;;;;;;4.78;3.92;;;6.10;99.90;;;5.82;81.09;101312.56;5089961;28;20339;-69
2023/03/15 04:26:38;;;;;;;8.00;5.15;;;5.80;99.90;;;5.77;82.09;101313.34;5072640;28;20052;-69
2023/03/15 04:29:25;;;;;;;6.07;4.43;;;5.70;99.90;;;5.76;82.58;101324.66;5074348;28;20511;-70
2023/03/15 04:32:16;;;;;;;5.00;4.57;;;5.60;99.90;;;5.84;83.08;101336.25;5052443;28;20056;-69
2023/03/15 04:34:55;;;;;;;6.35;5.15;;;5.70;99.90;;;6.01;82.78;101351.53;5072716;28;20135;-69
2023/03/15 04:37:31;;;;;;;5.38;4.88;;;5.80;99.90;;;6.16;83.12;101357.09;5074343;28;20471;-69
2023/03/15 04:40:28;;;;;;;5.85;5.32;;;6.00;99.90;;;6.27;82.79;101360.81;5073842;28;20083;-69
2023/03/15 04:43:15;;;;;;;7.40;4.55;;;6.10;99.90;;;6.44;82.77;101363.81;5073970;28;20121;-69
2023/03/15 04:45:55;;;;;;;7.97;4.78;;;6.30;99.90;;;5.94;82.52;101255.09;5074269;28;20051;-70
2023/03/15 04:48:54;;;;;;;10.48;5.38;;;6.40;99.90;;;6.70;82.36;101378.34;5036998;28;20097;-69
2023/03/15 04:51:41;;;;;;;11.55;5.18;;;6.50;99.90;;;6.69;82.16;101379.22;5074465;28;20055;-69
2023/03/15 04:54:32;;;;;;;7.93;5.38;;;6.50;99.90;;;6.77;81.44;101380.25;5073271;28;20056;-70
2023/03/15 04:57:18;;;;;;;9.60;5.85;;;6.60;99.90;;;6.92;81.46;101375.25;5074655;28;20063;-69
2023/03/15 05:00:10;;;;;;;9.00;4.78;;;6.70;99.90;;;6.91;81.12;101384.00;5072938;28;20063;-69
2023/03/15 05:03:01;;;;;;;14.60;5.38;;;6.70;99.90;;;6.52;81.98;101377.09;5073062;28;20527;-69
2023/03/15 05:06:07;;;;;;;10.27;5.88;;;6.40;99.90;;;6.29;81.33;101298.69;5060705;28;20060;-69
2023/03/15 05:08:55;;;;;;;13.75;5.03;;;6.50;99.90;;;6.32;81.82;101379.31;5074363;28;20046;-69
2023/03/15 05:11:46;;;;;;;9.68;6.00;;;6.20;99.90;;;6.62;81.69;101389.56;5068245;28;20143;-69
2023/03/15 05:14:40;;;;;;;11.65;5.35;;;6.40;99.90;;;6.68;81.55;101392.31;5057728;28;20086;-68
2023/03/15 05:17:29;;;;;;;9.18;4.85;;;6.40;99.90;;;6.77;81.28;101390.75;5073714;28;20080;-69
2023/03/15 05:20:00;;;;;;;13.75;5.43;;;6.50;99.90;;;6.85;80.75;101389.13;5074063;28;20392;-68
2023/03/15 05:22:44;;;;;;;12.20;5.53;;;6.60;99.90;;;6.88;80.77;101393.56;5072553;28;20045;-68
2023/03/15 05:25:21;;;;;;;8.70;5.07;;;6.60;99.90;;;6.87;80.28;101397.94;5074041;28;20127;-69
2023/03/15 05:27:58;;;;;;;11.73;5.30;;;6.70;99.90;;;6.60;80.80;101394.78;5073877;28;20052;-67
2023/03/15 05:30:44;;;;;;;11.20;5.80;;;6.40;99.90;;;6.17;83.15;101410.50;5072152;28;20083;-68
2023/03/15 05:33:33;;;;;;;9.73;5.28;;;5.90;99.90;;;6.33;82.59;101413.50;5073312;28;20059;-66
2023/03/15 05:36:22;;;;;;;11.03;5.20;;;6.00;99.90;;;6.34;82.64;101417.00;5072490;28;20515;-67
2023/03/15 05:39:21;;;;;;;9.20;5.05;;;6.10;99.90;;;6.20;82.28;101411.47;5072769;28;20287;-67
2023/03/15 05:42:09;;;;;;;10.82;5.28;;;6.00;99.90;;;6.30;82.22;101425.69;5072393;28;20041;-66
2023/03/15 05:44:52;;;;;;;8.70;4.38;;;6.10;99.90;;;6.39;81.89;101428.50;5089099;28;20052;-68
2023/03/15 05:47:35;;;;;;;7.80;5.28;;;6.10;99.90;;;6.43;81.31;101426.84;5073435;28;20072;-68
2023/03/15 05:50:11;;;;;;;11.18;4.85;;;6.20;99.90;;;6.46;81.01;101434.78;5088772;28;20106;-68
2023/03/15 05:52:58;;;;;;;9.60;4.88;;;6.30;99.90;;;6.44;80.84;101441.75;5073561;28;20533;-68
2023/03/15 05:56:04;;;;;;;9.65;5.05;;;6.20;99.90;;;6.46;80.35;101451.44;5052959;28;20557;-69
2023/03/15 05:58:51;;;;;;;11.27;5.18;;;6.30;99.90;;;6.52;80.32;101455.94;5071945;28;20045;-68
2023/03/15 06:01:55;;;;;;;8.00;5.00;;;6.30;99.90;;;6.49;79.94;101464.63;5066924;28;20491;-68
2023/03/15 06:04:30;;;;;;;9.25;5.93;;;6.30;99.90;;;6.51;79.85;101469.91;5071661;28;20465;-68
2023/03/15 06:06:59;;;;;;;11.52;5.65;;;6.30;99.90;;;6.51;79.74;101477.78;5071900;28;20148;-68
2023/03/15 06:09:28;;;;;;;8.15;6.15;;;6.30;99.90;;;6.51;79.59;101472.53;5071707;28;20056;-68
2023/03/15 06:11:58;;;;;;;10.45;6.22;;;6.30;99.90;;;6.62;79.73;101484.19;5073114;28;20044;-68
2023/03/15 06:14:28;;;;;;;12.63;6.43;;;6.40;99.90;;;6.61;79.91;101479.78;5088829;28;20052;-68
2023/03/15 06:16:59;;;;;;;9.70;5.75;;;6.40;99.90;;;6.57;79.70;101483.19;5088328;28;20062;-67
2023/03/15 06:19:29;;;;;;;7.03;6.32;;;6.40;99.90;;;6.48;79.92;101481.25;5071469;28;20075;-67
2023/03/15 06:21:58;;;;;;;9.38;5.40;;;6.40;99.90;;;6.51;80.18;101488.31;5072935;28;20044;-68
2023/03/15 06:24:33;;;;;;;9.48;5.78;;;6.30;99.90;;;6.67;80.19;101493.03;5072918;28;20036;-68
2023/03/15 06:27:02;;;;;;;6.97;6.00;;;6.50;99.90;;;6.83;80.53;101503.91;5071250;28;20081;-68
2023/03/15 06:29:31;;;;;;;8.40;5.80;;;6.60;99.90;;;6.98;80.25;101506.88;5071158;28;20048;-68
2023/03/15 06:31:59;;;;;;;8.05;5.70;;;6.80;99.90;;;7.13;80.07;101515.06;5087888;28;20090;-68
2023/03/15 06:34:28;;;;;;;6.80;5.90;;;6.90;99.90;;;7.32;79.72;101520.69;5071368;28;20056;-68
2023/03/15 06:36:57;;;;;;;7.82;6.10;;;7.10;99.90;;;7.25;79.38;101530.19;5071363;28;20091;-68
2023/03/15 06:39:25;;;;;;;6.18;5.25;;;7.10;99.90;;;7.10;79.16;101533.38;5071034;28;20059;-66
2023/03/15 06:41:57;;;;;;;8.57;6.07;;;7.00;99.90;;;7.22;79.49;101532.75;5071138;28;20522;-68
2023/03/15 06:44:29;;;;;;;6.47;5.82;;;7.00;99.90;;;7.34;79.43;101533.00;5071743;28;20059;-68
2023/03/15 06:47:02;;;;;;;8.45;5.47;;;7.10;99.90;;;7.65;79.66;101539.72;5071149;28;20044;-68
2023/03/15 06:49:31;;;;;;;7.25;5.63;;;7.40;99.90;;;7.97;79.42;101547.34;5072404;28;20044;-68
2023/03/15 06:52:00;;;;;;;7.10;5.80;;;7.70;99.90;;;8.39;78.93;101547.16;5070984;28;20414;-73
2023/03/15 06:54:29;;;;;;;9.05;5.53;;;8.10;99.90;;;8.85;77.05;101561.88;5070891;28;20098;-71
2023/03/15 06:56:58;;;;;;;8.40;4.60;;;8.60;99.90;;;9.22;75.29;101558.84;5087688;28;20045;-68
2023/03/15 06:59:27;;;;;;;9.98;5.38;;;9.00;99.90;;;9.64;73.23;101564.59;5072242;28;20494;-68
2023/03/15 07:01:56;;;;;;;9.40;5.22;;;9.40;99.90;;;10.01;71.59;101565.84;5072305;28;20086;-68
2023/03/15 07:04:24;;;;;;;9.40;5.50;;;9.80;99.90;;;10.34;70.21;101559.97;5072212;28;20098;-68
2023/03/15 07:06:53;;;;;;;6.78;5.50;;;10.20;99.90;;;10.68;68.96;101570.81;5072492;28;20037;-68
2023/03/15 07:09:21;;;;;;;8.82;5.05;;;10.50;99.90;;;10.96;67.92;101582.44;5072074;28;20036;-67
2023/03/15 07:11:49;;;;;;;9.13;5.28;;;10.80;99.90;;;11.19;66.43;101579.94;5072114;28;20080;-67
2023/03/15 07:14:18;;;;;;;13.43;5.30;;;11.00;99.90;;;11.30;65.55;101587.03;5072515;28;20037;-67
2023/03/15 07:16:49;;;;;;;9.77;5.88;;;11.10;99.90;;;11.36;64.67;101581.75;5072185;28;20063;-67
2023/03/15 07:19:17;;;;;;;6.90;4.90;;;11.20;99.90;;;11.38;64.83;101584.44;5072084;28;20568;-67
2023/03/15 07:21:45;;;;;;;7.35;5.28;;;11.20;99.90;;;11.43;64.43;101599.44;5072013;28;20049;-67
2023/03/15 07:24:14;;;;;;;6.80;4.75;;;11.30;99.90;;;11.54;64.08;101597.72;5072078;28;20499;-67
2023/03/15 07:26:42;;;;;;;8.15;5.07;;;11.40;99.90;;;11.44;64.25;101606.50;5071993;28;20098;-66
2023/03/15 07:29:11;;;;;;;7.25;6.18;;;11.30;99.90;;;11.29;64.41;101606.44;5071947;28;20041;-66
2023/03/15 07:31:39;;;;;;;7.93;5.60;;;11.20;99.90;;;11.28;64.93;101602.03;5071695;28;20518;-66
2023/03/15 07:34:09;;;;;;;8.55;5.97;;;11.20;99.90;;;11.04;64.87;101604.56;5072288;28;20079;-69
2023/03/15 07:36:37;;;;;;;9.57;5.40;;;11.00;99.90;;;11.47;65.57;101610.94;5072161;28;20045;-69
2023/03/15 07:39:06;;;;;;;9.60;4.70;;;11.20;99.90;;;11.71;64.69;101601.34;5071866;28;20032;-68
2023/03/15 07:41:34;;;;;;;7.68;4.47;;;11.50;99.90;;;11.99;63.86;101617.31;5072090;28;20044;-68
2023/03/15 07:44:20;;;;;;;11.63;4.68;;;11.80;99.90;;;12.44;62.17;101633.28;5070657;28;20114;-66
2023/03/15 07:46:49;;;;;;;7.78;4.75;;;12.30;99.90;;;12.67;60.40;101623.53;5071742;28;20132;-68
2023/03/15 07:49:19;;;;;;;9.25;4.80;;;12.60;99.90;;;12.81;59.31;101645.66;5071785;28;20048;-72
2023/03/15 07:51:47;;;;;;;12.20;5.28;;;12.70;99.90;;;12.93;59.05;101640.28;5071584;28;20139;-68
2023/03/15 07:54:15;;;;;;;14.27;5.40;;;12.80;99.90;;;12.85;57.63;101636.78;5071829;28;20041;-69
2023/03/15 07:56:43;;;;;;;9.75;4.72;;;12.90;99.90;;;12.62;57.65;101644.75;5071572;28;20041;-83
2023/03/15 07:59:12;;;;;;;8.18;4.32;;;12.50;99.90;;;12.83;57.07;101641.22;5071494;28;20128;-74
2023/03/15 08:01:40;;;;;;;7.97;4.43;;;12.60;99.90;;;12.90;55.65;101650.94;5073338;28;20554;-71
2023/03/15 08:04:09;;;;;;;11.50;4.32;;;12.70;99.90;;;12.78;56.18;101648.28;5075404;28;20135;-72
2023/03/15 08:06:39;;;;;;;8.35;4.10;;;12.50;99.90;;;13.41;56.47;101672.09;5075294;28;20045;-72
2023/03/15 08:09:08;;;;;;;11.93;4.18;;;13.00;99.90;;;13.02;55.55;101666.88;5074076;28;20094;-66
2023/03/15 08:11:37;;;;;;;9.15;4.72;;;12.90;99.90;;;12.65;54.69;101659.81;5075102;28;20040;-67
2023/03/15 08:14:05;;;;;;;14.32;4.85;;;12.60;99.90;;;12.43;56.11;101693.41;5074942;28;20079;-67
2023/03/15 08:16:34;;;;;;;12.43;4.30;;;12.20;99.90;;;12.01;56.75;101587.25;5075272;28;20041;-68
2023/03/15 08:19:02;;;;;;;9.63;4.20;;;12.30;99.90;;;12.77;56.25;101686.34;5075069;28;20516;-67
2023/03/15 08:21:32;;;;;;;7.60;4.30;;;12.40;99.90;;;13.36;55.83;101686.28;5074997;28;20048;-67
2023/03/15 08:24:02;;;;;;;10.07;4.72;;;12.90;99.90;;;13.87;54.61;101688.75;5074961;28;20044;-67
2023/03/15 08:26:30;;;;;;;10.38;4.75;;;13.50;99.90;;;14.20;53.54;101690.34;5074942;28;20131;-67
2023/03/15 08:28:59;;;;;;;10.70;4.35;;;14.00;99.90;;;13.97;52.22;101694.91;5074887;28;20033;-65
2023/03/15 08:31:27;;;;;;;11.25;4.40;;;14.00;99.90;;;13.60;53.02;101688.88;5074404;28;20147;-71
2023/03/15 08:33:55;;;;;;;6.72;4.03;;;13.60;99.90;;;14.20;52.13;101687.69;5074881;28;20052;-68
2023/03/15 08:36:24;;;;;;;9.27;4.15;;;13.90;99.90;;;14.45;50.89;101682.25;5074937;28;20044;-70
2023/03/15 08:38:52;;;;;;;9.18;4.30;;;14.30;99.90;;;14.53;50.29;101692.84;5074573;28;20055;-68
2023/03/15 08:41:22;;;;;;;10.45;4.45;;;14.40;99.90;;;14.27;49.86;101692.06;5074762;28;20044;-70
2023/03/15 08:43:50;;;;;;;11.45;4.15;;;14.20;99.90;;;14.10;50.92;101691.28;5074743;28;20095;-68
2023/03/15 08:46:20;;;;;;;8.25;4.35;;;14.00;99.90;;;14.12;50.15;101673.53;5074322;28;20062;-67
2023/03/15 08:48:49;;;;;;;11.65;4.25;;;14.10;99.90;;;14.20;49.83;101698.34;5073165;28;20051;-67
2023/03/15 08:51:18;;;;;;;10.27;4.55;;;14.10;99.90;;;14.65;49.58;101697.19;5074392;28;20129;-68
2023/03/15 08:53:46;;;;;;;7.47;3.67;;;14.40;99.90;;;14.43;49.12;101701.78;5074359;28;20071;-68
2023/03/15 08:56:15;;;;;;;7.85;3.95;;;14.30;99.90;;;14.68;48.96;101703.34;5074317;28;20059;-68
2023/03/15 08:58:44;;;;;;;7.95;3.92;;;14.50;99.90;;;14.77;47.76;101702.41;5074310;28;20048;-67
2023/03/15 09:01:13;;;;;;;7.63;4.38;;;14.60;99.90;;;14.59;46.88;101702.53;5074367;28;20040;-67
2023/03/15 09:03:42;;;;;;;8.45;3.95;;;14.50;99.90;;;14.79;47.14;101706.81;5090069;28;20062;-67
2023/03/15 09:06:11;;;;;;;5.68;3.78;;;14.60;99.90;;;14.91;48.21;101704.03;5074046;28;20037;-68
2023/03/15 09:08:40;;;;;;;7.35;3.83;;;14.70;99.90;;;15.18;48.02;101705.56;5074144;28;20036;-68
2023/03/15 09:11:09;;;;;;;8.48;4.40;;;15.00;99.90;;;15.26;46.27;101693.06;5073970;28;20045;-67
2023/03/15 09:13:37;;;;;;;8.73;4.30;;;15.10;99.90;;;15.34;45.71;101697.41;5072955;28;20436;-68
2023/03/15 09:16:07;;;;;;;10.77;4.45;;;15.20;99.90;;;15.44;46.16;101695.56;5074029;28;20045;-68
2023/03/15 09:18:36;;;;;;;8.52;4.13;;;15.30;99.90;;;15.44;44.64;101689.34;5073823;28;20496;-68
2023/03/15 09:21:05;;;;;;;9.43;4.00;;;15.30;99.90;;;15.56;44.55;101691.88;5073912;28;20040;-68
2023/03/15 09:23:34;;;;;;;8.57;4.25;;;15.30;99.90;;;15.47;44.82;101692.84;5073706;28;20124;-67
2023/03/15 09:26:03;;;;;;;9.82;4.85;;;15.30;99.90;;;14.65;44.12;101615.53;5073448;28;20079;-67
2023/03/15 09:28:31;;;;;;;8.52;3.90;;;15.10;99.90;;;15.24;43.52;101690.41;5073715;28;20048;-67
2023/03/15 09:31:00;;;;;;;7.65;3.80;;;15.00;99.90;;;15.15;44.15;101654.97;5073500;28;20044;-67
2023/03/15 09:33:31;;;;;;;7.35;3.70;;;15.10;99.90;;;15.47;44.52;101691.97;5072296;28;20072;-68
2023/03/15 09:36:00;;;;;;;6.82;4.10;;;15.20;99.90;;;15.52;42.53;101690.16;5073590;28;20429;-68
2023/03/15 09:38:28;;;;;;;7.95;3.50;;;15.30;99.90;;;15.53;41.13;101694.56;5073501;28;20076;-68
2023/03/15 09:40:59;;;;;;;9.75;4.45;;;15.30;99.90;;;14.87;43.35;101681.00;5073346;28;20051;-68
2023/03/15 09:43:58;;;;;;;5.97;3.97;;;14.70;99.90;;;15.34;43.36;101678.75;5073464;28;20079;-68
2023/03/15 09:46:30;;;;;;;9.93;4.20;;;15.00;99.90;;;15.54;43.64;101683.91;5073364;28;20048;-68
2023/03/15 09:49:09;;;;;;;9.82;4.63;;;15.30;99.90;;;15.67;44.07;101680.19;5073528;28;20060;-67
2023/03/15 09:51:42;;;;;;;8.43;4.22;;;15.40;99.90;;;15.67;43.35;101684.63;5073190;28;20574;-68
2023/03/15 09:54:16;;;;;;;12.88;4.72;;;15.50;99.90;;;15.82;44.24;101692.44;5073156;28;20043;-68
2023/03/15 09:56:54;;;;;;;8.27;3.95;;;15.60;99.90;;;15.58;41.09;101696.25;5088786;28;20057;-67
2023/03/15 09:59:34;;;;;;;8.73;4.35;;;15.40;99.90;;;14.97;42.83;101695.13;5073390;28;20621;-68
2023/03/15 10:02:18;;;;;;;11.32;4.75;;;14.70;99.90;;;15.26;42.89;101709.94;5072966;28;20052;-68
2023/03/15 10:04:52;;;;;;;10.35;4.63;;;14.90;99.90;;;15.12;42.32;101697.63;5072761;28;20631;-68
2023/03/15 10:07:20;;;;;;;8.52;4.78;;;14.90;99.90;;;15.23;42.91;101696.63;5072897;28;20131;-68
2023/03/15 10:09:48;;;;;;;8.35;4.28;;;15.00;99.90;;;15.39;41.48;101700.00;5073009;28;20043;-68
2023/03/15 10:12:27;;;;;;;9.10;4.40;;;15.20;99.90;;;15.58;41.10;101698.06;5072784;28;20045;-68
2023/03/15 10:15:34;;;;;;;8.88;4.18;;;15.30;99.90;;;15.71;41.26;101702.34;5072726;28;20044;-67
2023/03/15 10:18:26;;;;;;;10.88;4.78;;;15.50;99.90;;;15.86;39.90;101712.84;5072890;28;20063;-68
2023/03/15 10:21:04;;;;;;;13.48;4.60;;;15.70;99.90;;;15.50;39.52;101718.59;5072676;28;20047;-68
2023/03/15 10:23:44;;;;;;;7.13;4.22;;;15.40;99.90;;;15.65;38.28;101724.66;5072940;28;20113;-69
2023/03/15 10:26:18;;;;;;;9.63;4.70;;;15.40;99.90;;;15.74;38.69;101728.97;5071571;28;20060;-67
2023/03/15 10:28:47;;;;;;;7.57;4.60;;;15.50;99.90;;;15.64;39.72;101732.69;5072706;28;20418;-67
2023/03/15 10:31:21;;;;;;;11.70;4.75;;;15.50;99.90;;;15.10;41.04;101734.06;5072534;28;20049;-67
2023/03/15 10:34:10;;;;;;;9.30;5.40;;;15.00;99.90;;;14.71;41.14;101660.72;5072604;28;20049;-68
2023/03/15 10:36:46;;;;;;;8.35;4.97;;;15.00;99.90;;;15.18;41.38;101740.22;5088175;28;20458;-67
2023/03/15 10:39:14;;;;;;;11.73;5.18;;;15.10;99.90;;;15.42;41.26;101757.78;5072553;28;20098;-67
2023/03/15 10:41:47;;;;;;;10.85;5.40;;;15.20;99.90;;;15.17;41.00;101739.34;5071104;28;20057;-67
2023/03/15 10:44:19;;;;;;;7.65;4.95;;;15.00;99.90;;;15.10;42.56;101740.28;5072389;28;20419;-68
2023/03/15 10:47:05;;;;;;;7.90;4.65;;;15.00;99.90;;;15.57;43.05;101754.97;5072537;28;20420;-67